Thursday, May 25, 2017, 8:26 AM EDT

KMDT, Harrisburg International Airport

Location: Middletown, PA, United States Lat: 40.2
Local Time: 8:26 AM EDT (12:26 GMT) Lon: -76.767
Time Zone: US/Eastern Elev: 308 ft

Show me the last for .
Show Decoded

2017-05-25 07:56 METAR KMDT 251156Z 11011G20KT 1 1/4SM +RA BR BKN009 OVC013 13/13 A2952 RMK AO2
                 DZE50RAB50 SLP997 P0007 60015 70018 T01330128 10144 20133 55006 =
2017-05-25 07:52 METAR KMDT 251152Z 11012G20KT 1 1/4SM R13/6000VP6000FT +RA BR OVC009 13/13 A2952
                 RMK AO2 DZE50RAB50 P0005 =
2017-05-25 07:43 METAR KMDT 251143Z 12011G22KT 2 1/2SM -DZ BR OVC009 13/13 A2952 RMK AO2 CIG
                 007V014 P0001 T01330128 =
2017-05-25 07:16 METAR KMDT 251116Z 11012G20KT 3SM -DZ BR OVC008 13/13 A2952 RMK AO2 P0001
                 T01330128 =
2017-05-25 06:56 METAR KMDT 251056Z 12011KT 2 1/2SM -DZ BR OVC009 13/13 A2954 RMK AO2 CIG 007V012
                 SLP001 P0003 T01330128 =
2017-05-25 06:51 METAR KMDT 251051Z 12010KT 2 1/2SM -DZ BR OVC009 13/13 A2954 RMK AO2 CIG 007V012
                 P0003 =
2017-05-25 06:19 METAR KMDT 251019Z 12011KT 3SM -DZ BR OVC009 13/13 A2955 RMK AO2 CIG 007V012
                 P0002 T01330128 =
2017-05-25 05:56 METAR KMDT 250956Z 11007G17KT 9SM -DZ OVC010 14/13 A2955 RMK AO2 RAE13DZB16
                 SLP006 P0000 T01390128 =
2017-05-25 04:56 METAR KMDT 250856Z 10011KT 5SM -RA BR OVC010 14/13 A2957 RMK AO2 CIG 008V014
                 SLP013 P0003 60005 T01390128 56037 =
2017-05-25 03:56 METAR KMDT 250756Z 10010KT 5SM RA BR OVC011 14/13 A2961 RMK AO2 CIG 009V015
                 SLP025 P0001 T01390128 =
2017-05-25 03:31 METAR KMDT 250731Z 10010KT 10SM -RA OVC011 14/13 A2963 RMK AO2 P0000 T01390128 =
2017-05-25 02:56 METAR KMDT 250656Z 10009KT 8SM -RA OVC017 14/13 A2964 RMK AO2 SLP037 P0001
                 T01390128 =
2017-05-25 01:56 METAR KMDT 250556Z 12014KT 9SM -RA BKN020 OVC060 14/13 A2968 RMK AO2 RAB23
                 SLP050 P0003 60003 T01440128 10189 20144 55011 =
2017-05-25 00:56 METAR KMDT 250456Z 11017G22KT 10SM BKN060 OVC075 16/11 A2968 RMK AO2 SLP049
                 T01610106 402220133 =
2017-05-24 23:56 METAR KMDT 250356Z 12012KT 10SM OVC037 17/11 A2972 RMK AO2 SLP062 T01670106 =
2017-05-24 22:56 METAR KMDT 250256Z 12011KT 10SM BKN037 OVC095 18/11 A2971 RMK AO2 SLP062
                 T01780111 58000 =
2017-05-24 21:56 METAR KMDT 250156Z 13014KT 10SM FEW028 OVC036 18/13 A2973 RMK AO2 SLP068
                 T01830133 =
2017-05-24 20:56 METAR KMDT 250056Z 14009KT 10SM FEW034 FEW041 BKN100 OVC150 18/13 A2972 RMK AO2
                 SLP064 T01830133 =
2017-05-24 19:56 METAR KMDT 242356Z 15008KT 10SM BKN045 OVC060 19/13 A2971 RMK AO2 SLP062
                 T01890133 10222 20189 53002 =
2017-05-24 18:56 METAR KMDT 242256Z 16010KT 10SM BKN048 OVC055 19/13 A2971 RMK AO2 SLP059
                 T01940128 =
2017-05-24 17:56 METAR KMDT 242156Z 15008KT 10SM SCT047 OVC060 21/12 A2971 RMK AO2 SLP060
                 T02060122 =
2017-05-24 16:56 METAR KMDT 242056Z 15013KT 10SM OVC060 21/12 A2971 RMK AO2 SLP060 T02060117
                 50001 =
2017-05-24 15:56 METAR KMDT 241956Z 14010KT 10SM SCT060 OVC110 22/12 A2971 RMK AO2 SLP060
                 T02170122 =
2017-05-24 14:56 METAR KMDT 241856Z 14007KT 10SM SCT046 BKN055 22/12 A2972 RMK AO2 SLP063
                 T02170122 =
2017-05-24 13:56 METAR KMDT 241756Z 15007KT 8SM FEW042 BKN055 OVC100 21/13 A2971 RMK AO2 SLP059
                 T02060133 10217 20150 58010 =
2017-05-24 12:56 METAR KMDT 241656Z 14009KT 10SM FEW042 BKN095 21/13 A2973 RMK AO2 SLP066
                 T02110128 =
2017-05-24 11:56 METAR KMDT 241556Z 12005KT 9SM SCT040 BKN100 20/13 A2972 RMK AO2 SLP065
                 T02000128 =
2017-05-24 11:34 METAR KMDT 241534Z 14006KT 8SM SCT028 BKN035 BKN090 20/13 A2972 RMK AO2
                 T02000133 =
2017-05-24 11:19 METAR KMDT 241519Z 18004KT 7SM BKN028 BKN035 BKN095 19/13 A2974 RMK AO2
                 T01890133 =
2017-05-24 10:56 METAR KMDT 241456Z 15006KT 7SM FEW025 SCT095 18/13 A2974 RMK AO2 SLP069
                 T01830128 55009 =
2017-05-24 09:56 METAR KMDT 241356Z 20005KT 5SM HZ BKN080 OVC200 18/14 A2973 RMK AO2 SLP069
                 T01780144 =
2017-05-24 08:56 METAR KMDT 241256Z 00000KT 6SM BR OVC080 16/13 A2975 RMK AO2 SLP073 T01560133 =

Support USWX by starting your Amazon purchase here.